createdAt,value
2017-05-27T00:00:58.970Z,304
2017-05-27T00:02:06.701Z,308
2017-05-27T00:03:14.472Z,305
2017-05-27T00:04:21.952Z,301
2017-05-27T00:05:29.120Z,305
2017-05-27T00:06:36.603Z,311
2017-05-27T00:07:44.091Z,306
2017-05-27T00:08:51.877Z,306
2017-05-27T00:09:59.361Z,298
2017-05-27T00:11:06.842Z,307
2017-05-27T00:12:14.329Z,305
2017-05-27T00:13:21.809Z,305
2017-05-27T00:14:29.602Z,306
2017-05-27T00:15:37.082Z,306
2017-05-27T00:16:44.561Z,300
2017-05-27T00:17:52.046Z,306
2017-05-27T00:18:59.525Z,302
2017-05-27T00:20:07.306Z,306
2017-05-27T00:21:14.795Z,306
2017-05-27T00:22:22.275Z,306
2017-05-27T00:23:29.428Z,307
2017-05-27T00:24:36.584Z,306
2017-05-27T00:25:44.363Z,304
2017-05-27T00:26:51.512Z,307
2017-05-27T00:27:58.996Z,302
2017-05-27T00:29:06.150Z,304
2017-05-27T00:30:13.630Z,300
2017-05-27T00:31:21.414Z,305
2017-05-27T00:32:28.896Z,308
2017-05-27T00:33:36.381Z,305
2017-05-27T00:34:43.532Z,304
2017-05-27T00:35:51.016Z,313
2017-05-27T00:36:58.458Z,300
2017-05-27T00:38:05.938Z,312
2017-05-27T00:39:13.421Z,313
2017-05-27T00:40:20.908Z,309
2017-05-27T00:41:28.397Z,306
2017-05-27T00:42:35.859Z,298
2017-05-27T00:43:43.351Z,301
2017-05-27T00:44:50.503Z,308
2017-05-27T00:45:57.994Z,305
2017-05-27T00:47:05.481Z,310
2017-05-27T00:48:13.262Z,306
2017-05-27T00:49:20.744Z,305
2017-05-27T00:50:28.226Z,303
2017-05-27T00:51:35.712Z,310
2017-05-27T00:52:43.187Z,314
2017-05-27T00:53:50.648Z,309
2017-05-27T00:54:58.136Z,304
2017-05-27T00:56:05.284Z,310
2017-05-27T00:57:12.763Z,305
2017-05-27T00:58:19.912Z,308
2017-05-27T00:59:27.687Z,304
2017-05-27T01:00:35.169Z,311
2017-05-27T01:01:42.317Z,307
2017-05-27T01:02:49.799Z,309
2017-05-27T01:03:57.343Z,310
2017-05-27T01:05:05.127Z,309
2017-05-27T01:06:12.602Z,311
2017-05-27T01:07:20.080Z,311
2017-05-27T01:08:27.562Z,310
2017-05-27T01:09:35.039Z,307
2017-05-27T01:10:42.775Z,303
2017-05-27T01:11:49.927Z,309
2017-05-27T01:12:57.409Z,305
2017-05-27T01:14:04.898Z,308
2017-05-27T01:15:12.372Z,313
2017-05-27T01:16:20.153Z,304
2017-05-27T01:17:28.046Z,310
2017-05-27T01:18:35.529Z,303
2017-05-27T01:19:43.012Z,316
2017-05-27T01:20:50.487Z,314
2017-05-27T01:21:58.274Z,310
2017-05-27T01:23:05.754Z,311
2017-05-27T01:24:12.906Z,303
2017-05-27T01:25:20.394Z,307
2017-05-27T01:26:27.874Z,318
2017-05-27T01:27:35.656Z,312
2017-05-27T01:28:43.137Z,310
2017-05-27T01:29:50.617Z,308
2017-05-27T01:30:57.776Z,308
2017-05-27T01:32:05.262Z,307
2017-05-27T01:33:13.040Z,312
2017-05-27T01:34:20.525Z,311
2017-05-27T01:35:27.374Z,311
2017-05-27T01:36:34.854Z,312
2017-05-27T01:37:42.341Z,317
2017-05-27T01:38:50.130Z,312
2017-05-27T01:39:57.279Z,311
2017-05-27T01:41:04.753Z,312
2017-05-27T01:42:12.242Z,312
2017-05-27T01:43:19.720Z,310
2017-05-27T01:44:27.506Z,309
2017-05-27T01:45:34.985Z,305
2017-05-27T01:46:42.467Z,309
2017-05-27T01:47:49.613Z,319
2017-05-27T01:48:57.092Z,312
2017-05-27T01:50:04.873Z,305
2017-05-27T01:51:12.020Z,319
2017-05-27T01:52:19.497Z,305
2017-05-27T01:53:26.976Z,305
2017-05-27T01:54:34.460Z,313
2017-05-27T01:55:42.244Z,317
2017-05-27T01:56:49.725Z,313
2017-05-27T01:57:57.203Z,318
2017-05-27T01:59:04.690Z,311
2017-05-27T02:00:12.173Z,310
2017-05-27T02:01:19.999Z,313
2017-05-27T02:02:27.482Z,316
2017-05-27T02:03:34.638Z,321
2017-05-27T02:04:42.117Z,313
2017-05-27T02:05:49.829Z,313
2017-05-27T02:06:57.659Z,306
2017-05-27T02:08:05.138Z,320
2017-05-27T02:09:12.625Z,313
2017-05-27T02:10:20.105Z,314
2017-05-27T02:11:27.585Z,313
2017-05-27T02:12:35.369Z,316
2017-05-27T02:13:42.851Z,313
2017-05-27T02:14:50.333Z,314
2017-05-27T02:15:57.485Z,314
2017-05-27T02:17:04.965Z,307
2017-05-27T02:18:12.798Z,316
2017-05-27T02:19:20.283Z,315
2017-05-27T02:20:27.766Z,320
2017-05-27T02:21:35.248Z,313
2017-05-27T02:22:42.731Z,306
2017-05-27T02:23:50.181Z,309
2017-05-27T02:24:57.658Z,316
2017-05-27T02:26:05.151Z,319
2017-05-27T02:27:12.633Z,312
2017-05-27T02:28:19.786Z,314
2017-05-27T02:29:27.568Z,305
2017-05-27T02:30:35.048Z,314
2017-05-27T02:31:42.529Z,313
2017-05-27T02:32:50.017Z,320
2017-05-27T02:33:57.167Z,315
2017-05-27T02:35:04.998Z,315
2017-05-27T02:36:12.143Z,310
2017-05-27T02:37:19.297Z,305
2017-05-27T02:38:26.785Z,313
2017-05-27T02:39:33.928Z,322
2017-05-27T02:40:41.708Z,322
2017-05-27T02:41:49.195Z,313
2017-05-27T02:42:56.685Z,316
2017-05-27T02:44:04.166Z,312
2017-05-27T02:45:11.654Z,312
2017-05-27T02:46:19.110Z,311
2017-05-27T02:47:26.587Z,316
2017-05-27T02:48:34.066Z,314
2017-05-27T02:49:41.544Z,314
2017-05-27T02:50:49.022Z,322
2017-05-27T02:51:56.807Z,314
2017-05-27T02:53:04.282Z,313
2017-05-27T02:54:11.775Z,314
2017-05-27T02:55:19.249Z,312
2017-05-27T02:56:26.731Z,304
2017-05-27T02:57:34.181Z,312
2017-05-27T02:58:41.657Z,305
2017-05-27T02:59:49.141Z,305
2017-05-27T03:00:56.627Z,312
2017-05-27T03:02:04.111Z,307
2017-05-27T03:03:11.894Z,311
2017-05-27T03:04:19.377Z,307
2017-05-27T03:05:26.851Z,309
2017-05-27T03:06:34.336Z,307
2017-05-27T03:07:42.220Z,315
2017-05-27T03:08:50.000Z,316
2017-05-27T03:09:57.483Z,314
2017-05-27T03:11:04.628Z,308
2017-05-27T03:12:11.781Z,318
2017-05-27T03:13:19.255Z,315
2017-05-27T03:14:26.752Z,312
2017-05-27T03:15:34.252Z,315
2017-05-27T03:16:41.731Z,315
2017-05-27T03:17:49.207Z,315
2017-05-27T03:18:56.358Z,315
2017-05-27T03:20:04.186Z,314
2017-05-27T03:21:11.666Z,315
2017-05-27T03:22:19.143Z,316
2017-05-27T03:23:25.972Z,312
2017-05-27T03:24:32.804Z,310
2017-05-27T03:25:39.979Z,317
2017-05-27T03:26:47.460Z,319
2017-05-27T03:27:54.940Z,316
2017-05-27T03:29:01.763Z,313
2017-05-27T03:30:08.582Z,319
2017-05-27T03:31:16.088Z,316
2017-05-27T03:32:23.568Z,308
2017-05-27T03:33:31.050Z,310
2017-05-27T03:34:38.527Z,325
2017-05-27T03:35:46.004Z,320
2017-05-27T03:36:53.789Z,314
2017-05-27T03:38:01.322Z,319
2017-05-27T03:39:08.805Z,319
2017-05-27T03:40:16.290Z,315
2017-05-27T03:41:23.768Z,317
2017-05-27T03:42:31.548Z,323
2017-05-27T03:43:39.027Z,324
2017-05-27T03:44:46.565Z,317
2017-05-27T03:45:53.717Z,313
2017-05-27T03:47:01.196Z,310
2017-05-27T03:48:08.976Z,326
2017-05-27T03:49:16.455Z,317
2017-05-27T03:50:23.934Z,306
2017-05-27T03:51:31.422Z,308
2017-05-27T03:52:38.901Z,321
2017-05-27T03:53:46.686Z,320
2017-05-27T03:54:54.172Z,309
2017-05-27T03:56:01.645Z,310
2017-05-27T03:57:08.799Z,310
2017-05-27T03:58:16.278Z,303
2017-05-27T03:59:23.733Z,304
2017-05-27T04:00:31.217Z,311
2017-05-27T04:01:38.699Z,322
2017-05-27T04:02:46.178Z,323
2017-05-27T04:03:53.659Z,310
2017-05-27T04:05:01.440Z,311
2017-05-27T04:06:08.921Z,314
2017-05-27T04:07:16.408Z,322
2017-05-27T04:08:23.550Z,310
2017-05-27T04:09:31.033Z,312
2017-05-27T04:10:38.813Z,308
2017-05-27T04:11:46.295Z,312
2017-05-27T04:12:53.769Z,317
2017-05-27T04:14:01.249Z,317
2017-05-27T04:15:08.743Z,314
2017-05-27T04:16:16.520Z,314
2017-05-27T04:17:23.996Z,315
2017-05-27T04:18:31.475Z,316
2017-05-27T04:19:38.957Z,312
2017-05-27T04:20:46.433Z,322
2017-05-27T04:21:54.214Z,317
2017-05-27T04:23:01.694Z,313
2017-05-27T04:24:08.849Z,323
2017-05-27T04:25:16.329Z,310
2017-05-27T04:26:23.805Z,318
2017-05-27T04:27:31.587Z,307
2017-05-27T04:28:39.066Z,317
2017-05-27T04:29:46.555Z,315
2017-05-27T04:30:54.033Z,318
2017-05-27T04:32:01.510Z,318
2017-05-27T04:33:09.287Z,326
2017-05-27T04:34:16.770Z,309
2017-05-27T04:35:24.250Z,313
2017-05-27T04:36:31.429Z,318
2017-05-27T04:37:38.578Z,326
2017-05-27T04:38:46.363Z,318
2017-05-27T04:39:53.843Z,312
2017-05-27T04:41:01.325Z,316
2017-05-27T04:42:08.807Z,323
2017-05-27T04:43:16.290Z,318
2017-05-27T04:44:24.079Z,316
2017-05-27T04:45:31.231Z,319
2017-05-27T04:46:38.710Z,309
2017-05-27T04:47:46.188Z,308
2017-05-27T04:48:53.667Z,323
2017-05-27T04:50:01.446Z,318
2017-05-27T04:51:08.936Z,308
2017-05-27T04:52:16.416Z,323
2017-05-27T04:53:23.900Z,314
2017-05-27T04:54:31.377Z,316
2017-05-27T04:55:39.153Z,319
2017-05-27T04:56:46.627Z,311
2017-05-27T04:57:54.110Z,311
2017-05-27T04:59:00.928Z,327
2017-05-27T05:00:08.410Z,320
2017-05-27T05:01:16.192Z,314
2017-05-27T05:02:23.681Z,321
2017-05-27T05:03:31.167Z,306
2017-05-27T05:04:38.640Z,327
2017-05-27T05:05:46.119Z,305
2017-05-27T05:06:53.910Z,305
2017-05-27T05:08:01.393Z,316
2017-05-27T05:09:08.544Z,308
2017-05-27T05:10:16.030Z,324
2017-05-27T05:11:23.512Z,315
2017-05-27T05:12:31.008Z,312
2017-05-27T05:13:38.491Z,310
2017-05-27T05:14:45.971Z,321
2017-05-27T05:15:53.449Z,319
2017-05-27T05:17:00.604Z,306
2017-05-27T05:18:08.434Z,326
2017-05-27T05:19:15.588Z,310
2017-05-27T05:20:23.067Z,319
2017-05-27T05:21:30.773Z,312
2017-05-27T05:22:38.254Z,318
2017-05-27T05:23:45.702Z,310
2017-05-27T05:24:53.208Z,322
2017-05-27T05:26:00.691Z,306
2017-05-27T05:27:08.171Z,319
2017-05-27T05:28:15.651Z,310
2017-05-27T05:29:23.428Z,303
2017-05-27T05:30:30.915Z,324
2017-05-27T05:31:38.065Z,318
2017-05-27T05:32:45.546Z,313
2017-05-27T05:33:53.028Z,302
2017-05-27T05:35:00.806Z,311
2017-05-27T05:36:08.288Z,313
2017-05-27T05:37:15.778Z,303
2017-05-27T05:38:23.263Z,320
2017-05-27T05:39:30.754Z,310
2017-05-27T05:40:38.524Z,321
2017-05-27T05:41:45.673Z,312
2017-05-27T05:42:53.159Z,321
2017-05-27T05:44:00.639Z,312
2017-05-27T05:45:08.123Z,317
2017-05-27T05:46:15.955Z,321
2017-05-27T05:47:23.437Z,316
2017-05-27T05:48:30.974Z,308
2017-05-27T05:49:38.453Z,320
2017-05-27T05:50:45.939Z,318
2017-05-27T05:51:53.381Z,299
2017-05-27T05:53:00.863Z,311
2017-05-27T05:54:07.680Z,311
2017-05-27T05:55:15.176Z,308
2017-05-27T05:56:22.661Z,318
2017-05-27T05:57:30.492Z,315
2017-05-27T05:58:37.974Z,298
2017-05-27T05:59:45.455Z,312
2017-05-27T06:00:52.938Z,311
2017-05-27T06:02:00.417Z,306
2017-05-27T06:03:08.250Z,299
2017-05-27T06:04:15.733Z,303
2017-05-27T06:05:23.214Z,304
2017-05-27T06:06:30.696Z,314
2017-05-27T06:07:37.845Z,301
2017-05-27T06:08:45.683Z,302
2017-05-27T06:09:53.167Z,295
2017-05-27T06:11:00.327Z,296
2017-05-27T06:12:07.812Z,302
2017-05-27T06:13:15.294Z,299
2017-05-27T06:14:23.131Z,305
2017-05-27T06:15:45.192Z,293
2017-05-27T06:16:52.677Z,304
2017-05-27T06:17:59.831Z,297
2017-05-27T06:19:06.992Z,298
2017-05-27T06:20:14.836Z,290
2017-05-27T06:21:22.322Z,292
2017-05-27T06:22:29.800Z,296
2017-05-27T06:23:37.284Z,297
2017-05-27T06:24:44.765Z,295
2017-05-27T06:25:52.547Z,296
2017-05-27T06:27:00.031Z,293
2017-05-27T06:28:07.520Z,301
2017-05-27T06:29:15.003Z,290
2017-05-27T06:30:22.488Z,296
2017-05-27T06:31:29.954Z,289
2017-05-27T06:32:37.450Z,292
2017-05-27T06:33:44.939Z,284
2017-05-27T06:34:52.092Z,288
2017-05-27T06:35:59.253Z,298
2017-05-27T06:37:07.094Z,289
2017-05-27T06:38:14.575Z,299
2017-05-27T06:39:22.073Z,288
2017-05-27T06:40:30.965Z,282
2017-05-27T06:41:38.450Z,294
2017-05-27T06:42:45.902Z,297
2017-05-27T06:43:53.382Z,284
2017-05-27T06:45:00.538Z,284
2017-05-27T06:46:08.025Z,296
2017-05-27T06:47:15.517Z,278
2017-05-27T06:48:23.367Z,276
2017-05-27T06:49:30.848Z,281
2017-05-27T06:50:38.334Z,283
2017-05-27T06:51:45.820Z,291
2017-05-27T06:52:53.309Z,290
2017-05-27T06:54:01.098Z,283
2017-05-27T06:55:08.581Z,287
2017-05-27T06:56:16.069Z,283
2017-05-27T06:57:23.550Z,280
2017-05-27T06:58:30.713Z,286
2017-05-27T06:59:38.501Z,289
2017-05-27T07:00:45.990Z,282
2017-05-27T07:01:53.701Z,282
2017-05-27T07:03:01.181Z,285
2017-05-27T07:04:08.668Z,278
2017-05-27T07:05:16.505Z,277
2017-05-27T07:06:23.990Z,280
2017-05-27T07:07:31.149Z,278
2017-05-27T07:08:38.629Z,280
2017-05-27T07:09:46.115Z,274
2017-05-27T07:10:53.290Z,267
2017-05-27T07:12:00.774Z,270
2017-05-27T07:13:08.260Z,278
2017-05-27T07:14:15.422Z,278
2017-05-27T07:15:22.906Z,278
2017-05-27T07:16:30.690Z,282
2017-05-27T07:17:38.179Z,277
2017-05-27T07:18:45.661Z,270
2017-05-27T07:19:53.150Z,272
2017-05-27T07:21:00.639Z,276
2017-05-27T07:22:08.479Z,274
2017-05-27T07:23:15.971Z,266
2017-05-27T07:24:23.467Z,276
2017-05-27T07:25:30.957Z,270
2017-05-27T07:26:38.446Z,272
2017-05-27T07:27:46.282Z,273
2017-05-27T07:28:53.774Z,264
2017-05-27T07:30:01.257Z,265
2017-05-27T07:31:08.421Z,271
2017-05-27T07:32:15.908Z,271
2017-05-27T07:33:23.698Z,268
2017-05-27T07:34:31.185Z,276
2017-05-27T07:35:38.674Z,272
2017-05-27T07:36:46.159Z,268
2017-05-27T07:37:53.650Z,261
2017-05-27T07:39:01.449Z,273
2017-05-27T07:40:08.928Z,263
2017-05-27T07:41:16.417Z,270
2017-05-27T07:42:23.585Z,268
2017-05-27T07:43:31.075Z,261
2017-05-27T07:44:38.910Z,276
2017-05-27T07:45:46.397Z,263
2017-05-27T07:46:53.559Z,266
2017-05-27T07:48:01.048Z,273
2017-05-27T07:49:08.218Z,267
2017-05-27T07:50:16.052Z,265
2017-05-27T07:51:23.539Z,266
2017-05-27T07:52:31.028Z,273
2017-05-27T07:53:38.515Z,271
2017-05-27T07:54:46.008Z,264
2017-05-27T07:55:53.899Z,260
2017-05-27T07:57:01.389Z,265
2017-05-27T07:58:08.222Z,267
2017-05-27T07:59:15.711Z,274
2017-05-27T08:00:23.204Z,274
2017-05-27T08:01:31.104Z,265
2017-05-27T08:02:38.580Z,266
2017-05-27T08:03:46.071Z,266
2017-05-27T08:04:53.559Z,265
2017-05-27T08:06:00.714Z,266
2017-05-27T08:07:08.512Z,264
2017-05-27T08:08:15.998Z,264
2017-05-27T08:09:23.491Z,261
2017-05-27T08:10:30.982Z,262
2017-05-27T08:11:38.469Z,262
2017-05-27T08:12:46.326Z,258
2017-05-27T08:13:53.824Z,270
2017-05-27T08:15:01.311Z,269
2017-05-27T08:16:08.475Z,261
2017-05-27T08:17:15.636Z,255
2017-05-27T08:18:23.429Z,253
2017-05-27T08:19:30.918Z,251
2017-05-27T08:20:38.413Z,262
2017-05-27T08:21:45.909Z,255
2017-05-27T08:22:53.409Z,263
2017-05-27T08:24:01.350Z,267
2017-05-27T08:25:08.836Z,261
2017-05-27T08:26:16.324Z,259
2017-05-27T08:27:24.219Z,259
2017-05-27T08:28:31.046Z,260
2017-05-27T08:29:38.840Z,260
2017-05-27T08:30:46.329Z,259
2017-05-27T08:31:53.818Z,262
2017-05-27T08:33:01.322Z,259
2017-05-27T08:34:08.811Z,265
2017-05-27T08:35:16.599Z,260
2017-05-27T08:36:24.099Z,263
2017-05-27T08:37:31.586Z,250
2017-05-27T08:38:38.753Z,253
2017-05-27T08:39:46.242Z,258
2017-05-27T08:40:54.033Z,254
2017-05-27T08:42:01.521Z,259
2017-05-27T08:43:08.680Z,259
2017-05-27T08:44:15.837Z,256
2017-05-27T08:45:23.342Z,256
2017-05-27T08:46:31.133Z,251
2017-05-27T08:47:38.302Z,252
2017-05-27T08:48:45.796Z,264
2017-05-27T08:49:53.283Z,264
2017-05-27T08:51:00.781Z,258
2017-05-27T08:52:08.570Z,259
2017-05-27T08:53:16.057Z,263
2017-05-27T08:54:23.553Z,253
2017-05-27T08:55:30.715Z,250
2017-05-27T08:56:38.203Z,251
2017-05-27T08:57:45.994Z,259
2017-05-27T08:58:53.485Z,251
2017-05-27T09:00:00.976Z,256
2017-05-27T09:01:08.466Z,246
2017-05-27T09:02:15.954Z,257
2017-05-27T09:03:24.000Z,251
2017-05-27T09:04:31.497Z,249
2017-05-27T09:05:38.988Z,256
2017-05-27T09:06:46.475Z,253
2017-05-27T09:07:53.960Z,245
2017-05-27T09:09:01.747Z,241
2017-05-27T09:10:08.914Z,256
2017-05-27T09:11:16.074Z,242
2017-05-27T09:12:23.244Z,252
2017-05-27T09:13:30.732Z,252
2017-05-27T09:14:38.522Z,249
2017-05-27T09:15:46.014Z,249
2017-05-27T09:16:53.505Z,258
2017-05-27T09:18:00.996Z,247
2017-05-27T09:19:08.486Z,248
2017-05-27T09:20:16.274Z,250
2017-05-27T09:21:23.764Z,247
2017-05-27T09:22:31.273Z,248
2017-05-27T09:23:38.765Z,245
2017-05-27T09:24:45.933Z,247
2017-05-27T09:25:53.721Z,250
2017-05-27T09:27:01.209Z,247
2017-05-27T09:28:08.706Z,247
2017-05-27T09:29:16.195Z,248
2017-05-27T09:30:23.357Z,252
2017-05-27T09:31:31.150Z,241
2017-05-27T09:32:38.639Z,239
2017-05-27T09:33:46.133Z,254
2017-05-27T09:34:53.292Z,249
2017-05-27T09:36:00.463Z,249
2017-05-27T09:37:07.921Z,253
2017-05-27T09:38:15.412Z,251
2017-05-27T09:39:22.904Z,244
2017-05-27T09:40:30.399Z,248
2017-05-27T09:41:37.888Z,249
2017-05-27T09:42:45.685Z,243
2017-05-27T09:43:53.172Z,241
2017-05-27T09:45:00.659Z,237
2017-05-27T09:46:08.148Z,245
2017-05-27T09:47:15.642Z,244
2017-05-27T09:48:23.486Z,236
2017-05-27T09:49:30.985Z,246
2017-05-27T09:50:38.471Z,252
2017-05-27T09:51:45.965Z,242
2017-05-27T09:52:53.127Z,248
2017-05-27T09:54:00.968Z,237
2017-05-27T09:55:08.136Z,241
2017-05-27T09:56:15.625Z,247
2017-05-27T09:57:23.145Z,242
2017-05-27T09:58:30.637Z,252
2017-05-27T09:59:38.492Z,246
2017-05-27T10:00:45.986Z,245
2017-05-27T10:01:53.516Z,239
2017-05-27T10:03:01.010Z,239
2017-05-27T10:04:08.510Z,251
2017-05-27T10:05:16.297Z,249
2017-05-27T10:06:23.796Z,242
2017-05-27T10:07:31.279Z,240
2017-05-27T10:08:38.775Z,240
2017-05-27T10:09:46.271Z,235
2017-05-27T10:10:54.110Z,247
2017-05-27T10:12:01.269Z,240
2017-05-27T10:13:08.759Z,248
2017-05-27T10:14:16.251Z,234
2017-05-27T10:15:23.757Z,240
2017-05-27T10:16:31.553Z,232
2017-05-27T10:17:39.045Z,245
2017-05-27T10:18:46.542Z,238
2017-05-27T10:19:54.029Z,235
2017-05-27T10:21:01.522Z,236
2017-05-27T10:22:09.314Z,231
2017-05-27T10:23:16.803Z,236
2017-05-27T10:24:24.301Z,238
2017-05-27T10:25:31.794Z,243
2017-05-27T10:26:39.286Z,238
2017-05-27T10:27:47.077Z,241
2017-05-27T10:28:54.242Z,237
2017-05-27T10:30:01.732Z,238
2017-05-27T10:31:09.225Z,241
2017-05-27T10:32:16.718Z,246
2017-05-27T10:33:24.233Z,230
2017-05-27T10:34:31.722Z,229
2017-05-27T10:35:39.216Z,234
2017-05-27T10:36:46.711Z,243
2017-05-27T10:37:54.215Z,240
2017-05-27T10:39:02.058Z,231
2017-05-27T10:40:09.549Z,243
2017-05-27T10:41:17.048Z,233
2017-05-27T10:42:24.537Z,240
2017-05-27T10:43:32.030Z,244
2017-05-27T10:44:39.831Z,232
2017-05-27T10:45:47.328Z,232
2017-05-27T10:46:54.170Z,244
2017-05-27T10:48:01.662Z,239
2017-05-27T10:49:09.150Z,237
2017-05-27T10:50:16.942Z,227
2017-05-27T10:51:24.433Z,237
2017-05-27T10:52:31.922Z,240
2017-05-27T10:53:39.084Z,240
2017-05-27T10:54:46.581Z,236
2017-05-27T10:55:54.430Z,229
2017-05-27T10:57:01.921Z,235
2017-05-27T10:58:09.417Z,232
2017-05-27T10:59:16.914Z,241
2017-05-27T11:00:24.405Z,238
2017-05-27T11:01:32.250Z,234
2017-05-27T11:02:39.415Z,237
2017-05-27T11:03:46.914Z,237
2017-05-27T11:04:54.407Z,229
2017-05-27T11:06:01.898Z,240
2017-05-27T11:07:09.742Z,242
2017-05-27T11:08:17.240Z,229
2017-05-27T11:09:24.737Z,239
2017-05-27T11:10:32.236Z,235
2017-05-27T11:11:39.728Z,231
2017-05-27T11:12:47.575Z,226
2017-05-27T11:13:54.737Z,235
2017-05-27T11:15:02.232Z,228
2017-05-27T11:16:09.729Z,224
2017-05-27T11:17:17.225Z,224
2017-05-27T11:18:24.693Z,234
2017-05-27T11:19:32.188Z,232
2017-05-27T11:20:39.685Z,232
2017-05-27T11:21:47.176Z,232
2017-05-27T11:22:54.671Z,228
2017-05-27T11:24:02.521Z,238
2017-05-27T11:25:10.017Z,239
2017-05-27T11:26:17.501Z,236
2017-05-27T11:27:24.996Z,240
2017-05-27T11:28:32.495Z,229
2017-05-27T11:29:40.285Z,237
2017-05-27T11:30:47.443Z,229
2017-05-27T11:31:54.939Z,230
2017-05-27T11:33:02.438Z,225
2017-05-27T11:34:09.933Z,231
2017-05-27T11:35:17.776Z,233
2017-05-27T11:36:24.937Z,232
2017-05-27T11:37:32.431Z,222
2017-05-27T11:38:39.930Z,225
2017-05-27T11:39:47.422Z,234
2017-05-27T11:40:55.267Z,228
2017-05-27T11:42:02.429Z,222
2017-05-27T11:43:09.596Z,234
2017-05-27T11:44:17.091Z,228
2017-05-27T11:45:24.269Z,226
2017-05-27T11:46:31.785Z,238
2017-05-27T11:47:39.289Z,230
2017-05-27T11:48:46.782Z,232
2017-05-27T11:49:54.272Z,230
2017-05-27T11:51:01.768Z,223
2017-05-27T11:52:09.617Z,223
2017-05-27T11:53:16.791Z,230
2017-05-27T11:54:24.285Z,225
2017-05-27T11:55:31.777Z,235
2017-05-27T11:56:39.275Z,227
2017-05-27T11:57:47.121Z,227
2017-05-27T11:58:54.616Z,232
2017-05-27T12:00:02.107Z,229
2017-05-27T12:01:09.602Z,238
2017-05-27T12:02:17.104Z,234
2017-05-27T12:03:24.946Z,227
2017-05-27T12:04:32.451Z,229
2017-05-27T12:05:39.933Z,229
2017-05-27T12:06:47.427Z,226
2017-05-27T12:07:54.923Z,228
2017-05-27T12:09:02.766Z,235
2017-05-27T12:10:10.277Z,237
2017-05-27T12:11:17.777Z,235
2017-05-27T12:12:25.269Z,223
2017-05-27T12:13:32.765Z,225
2017-05-27T12:14:40.556Z,228
2017-05-27T12:15:47.732Z,228
2017-05-27T12:16:55.221Z,226
2017-05-27T12:18:02.721Z,230
2017-05-27T12:19:10.218Z,235
2017-05-27T12:20:18.057Z,237
2017-05-27T12:21:25.552Z,235
2017-05-27T12:22:33.049Z,235
2017-05-27T12:23:40.548Z,231
2017-05-27T12:24:48.046Z,233
2017-05-27T12:25:55.894Z,226
2017-05-27T12:27:03.386Z,221
2017-05-27T12:28:10.756Z,234
2017-05-27T12:29:18.249Z,228
2017-05-27T12:30:25.743Z,237
2017-05-27T12:31:33.262Z,236
2017-05-27T12:32:40.756Z,229
2017-05-27T12:33:48.258Z,231
2017-05-27T12:34:55.750Z,235
2017-05-27T12:36:03.245Z,226
2017-05-27T12:37:11.086Z,226
2017-05-27T12:38:18.579Z,225
2017-05-27T12:39:26.073Z,233
2017-05-27T12:40:33.568Z,224
2017-05-27T12:41:41.063Z,226
2017-05-27T12:42:48.902Z,234
2017-05-27T12:43:56.394Z,235
2017-05-27T12:45:03.886Z,221
2017-05-27T12:46:11.385Z,235
2017-05-27T12:47:18.877Z,228
2017-05-27T12:48:26.673Z,235
2017-05-27T12:49:34.169Z,219
2017-05-27T12:50:41.672Z,221
2017-05-27T12:51:49.162Z,234
2017-05-27T12:52:56.665Z,225
2017-05-27T12:54:04.537Z,231
2017-05-27T12:55:12.026Z,233
2017-05-27T12:56:19.190Z,221
2017-05-27T12:57:26.680Z,224
2017-05-27T12:58:34.173Z,229
2017-05-27T12:59:42.017Z,225
2017-05-27T13:00:49.228Z,228
2017-05-27T13:01:56.730Z,229
2017-05-27T13:03:04.222Z,224
2017-05-27T13:04:11.058Z,222
2017-05-27T13:05:18.847Z,222
2017-05-27T13:06:26.337Z,228
2017-05-27T13:07:33.837Z,232
2017-05-27T13:08:40.998Z,223
2017-05-27T13:09:48.494Z,228
2017-05-27T13:10:56.012Z,231
2017-05-27T13:12:03.511Z,218
2017-05-27T13:13:10.692Z,228
2017-05-27T13:14:17.868Z,222
2017-05-27T13:15:25.035Z,222
2017-05-27T13:16:32.887Z,223
2017-05-27T13:17:40.382Z,222
2017-05-27T13:18:47.878Z,226
2017-05-27T13:19:55.377Z,230
2017-05-27T13:21:02.871Z,219
2017-05-27T13:22:10.711Z,220
2017-05-27T13:23:18.210Z,220
2017-05-27T13:24:25.705Z,221
2017-05-27T13:25:33.204Z,219
2017-05-27T13:26:40.701Z,221
2017-05-27T13:27:48.169Z,221
2017-05-27T13:28:55.667Z,217
2017-05-27T13:30:03.162Z,221
2017-05-27T13:31:10.670Z,221
2017-05-27T13:32:18.165Z,228
2017-05-27T13:33:25.959Z,230
2017-05-27T13:34:33.458Z,225
2017-05-27T13:35:40.950Z,231
2017-05-27T13:36:48.443Z,221
2017-05-27T13:37:55.610Z,230
2017-05-27T13:39:03.401Z,221
2017-05-27T13:40:10.564Z,230
2017-05-27T13:41:17.725Z,215
2017-05-27T13:42:25.220Z,220
2017-05-27T13:43:32.385Z,223
2017-05-27T13:44:40.232Z,214
2017-05-27T13:45:47.393Z,225
2017-05-27T13:46:54.891Z,215
2017-05-27T13:48:02.392Z,215
2017-05-27T13:49:09.891Z,221
2017-05-27T13:50:17.730Z,223
2017-05-27T13:51:25.225Z,222
2017-05-27T13:52:32.719Z,219
2017-05-27T13:53:40.211Z,230
2017-05-27T13:54:47.702Z,229
2017-05-27T13:55:55.553Z,214
2017-05-27T13:57:02.721Z,217
2017-05-27T13:58:10.216Z,213
2017-05-27T13:59:17.713Z,220
2017-05-27T14:00:25.207Z,227
2017-05-27T14:01:33.006Z,224
2017-05-27T14:02:40.506Z,227
2017-05-27T14:03:48.007Z,215
2017-05-27T14:04:55.506Z,223
2017-05-27T14:06:03.002Z,213
2017-05-27T14:07:10.856Z,226
2017-05-27T14:08:18.026Z,213
2017-05-27T14:09:25.524Z,218
2017-05-27T14:10:33.022Z,213
2017-05-27T14:11:40.518Z,224
2017-05-27T14:12:48.310Z,221
2017-05-27T14:13:55.810Z,224
2017-05-27T14:15:03.302Z,225
2017-05-27T14:16:25.381Z,225
2017-05-27T14:17:32.546Z,224
2017-05-27T14:18:40.061Z,223
2017-05-27T14:19:47.560Z,212
2017-05-27T14:20:55.056Z,221
2017-05-27T14:22:02.550Z,227
2017-05-27T14:23:10.045Z,213
2017-05-27T14:24:17.933Z,224
2017-05-27T14:25:25.427Z,217
2017-05-27T14:26:32.920Z,216
2017-05-27T14:27:40.415Z,215
2017-05-27T14:28:47.912Z,226
2017-05-27T14:29:55.774Z,226
2017-05-27T14:31:03.267Z,212
2017-05-27T14:32:10.434Z,215
2017-05-27T14:33:17.925Z,213
2017-05-27T14:34:25.422Z,215
2017-05-27T14:35:33.270Z,217
2017-05-27T14:36:40.767Z,221
2017-05-27T14:37:48.263Z,223
2017-05-27T14:38:55.763Z,214
2017-05-27T14:40:03.263Z,213
2017-05-27T14:41:11.118Z,211
2017-05-27T14:42:18.618Z,217
2017-05-27T14:43:26.127Z,225
2017-05-27T14:44:33.299Z,216
2017-05-27T14:45:40.798Z,216
2017-05-27T14:46:48.644Z,209
2017-05-27T14:47:56.137Z,224
2017-05-27T14:49:03.633Z,221
2017-05-27T14:50:11.133Z,212
2017-05-27T14:51:18.626Z,221
2017-05-27T14:52:26.145Z,224
2017-05-27T14:53:33.642Z,213
2017-05-27T14:54:41.141Z,215
2017-05-27T14:55:48.635Z,209
2017-05-27T14:56:56.131Z,220
2017-05-27T14:58:18.569Z,220
2017-05-27T14:59:26.063Z,223
2017-05-27T15:00:33.559Z,218
2017-05-27T15:01:41.055Z,218
2017-05-27T15:02:48.559Z,218
2017-05-27T15:03:56.353Z,210
2017-05-27T15:05:03.519Z,213
2017-05-27T15:06:11.018Z,208
2017-05-27T15:07:18.514Z,209
2017-05-27T15:08:26.008Z,220
2017-05-27T15:09:33.803Z,213
2017-05-27T15:10:41.301Z,208
2017-05-27T15:11:48.795Z,212
2017-05-27T15:12:56.295Z,213
2017-05-27T15:14:03.792Z,213
2017-05-27T15:15:11.642Z,209
2017-05-27T15:16:19.139Z,214
2017-05-27T15:17:26.642Z,210
2017-05-27T15:18:33.811Z,218
2017-05-27T15:19:41.308Z,218
2017-05-27T15:20:49.159Z,222
2017-05-27T15:21:56.664Z,218
2017-05-27T15:23:04.165Z,217
2017-05-27T15:24:11.660Z,212
2017-05-27T15:25:18.831Z,215
2017-05-27T15:26:26.685Z,217
2017-05-27T15:27:34.186Z,208
2017-05-27T15:28:41.681Z,209
2017-05-27T15:29:49.175Z,215
2017-05-27T15:30:56.674Z,213